sensor_id;sensor_type;location;lat;lon;timestamp;P1;durP1;ratioP1;P2;durP2;ratioP2
45232;SDS011;30969;51.052;17.056;2022-09-09T00:00:47;7.00;;;4.70;;
45232;SDS011;30969;51.052;17.056;2022-09-09T00:06:06;11.25;;;6.28;;
45232;SDS011;30969;51.052;17.056;2022-09-09T00:11:15;8.27;;;5.47;;
45232;SDS011;30969;51.052;17.056;2022-09-09T00:16:33;5.30;;;4.80;;
45232;SDS011;30969;51.052;17.056;2022-09-09T00:21:43;6.32;;;4.70;;
45232;SDS011;30969;51.052;17.056;2022-09-09T00:26:56;6.13;;;4.93;;
45232;SDS011;30969;51.052;17.056;2022-09-09T00:32:11;5.88;;;4.95;;
45232;SDS011;30969;51.052;17.056;2022-09-09T00:37:16;8.70;;;6.07;;
45232;SDS011;30969;51.052;17.056;2022-09-09T00:42:23;5.55;;;4.88;;
45232;SDS011;30969;51.052;17.056;2022-09-09T00:47:34;7.15;;;5.03;;
45232;SDS011;30969;51.052;17.056;2022-09-09T00:52:46;5.75;;;5.03;;
45232;SDS011;30969;51.052;17.056;2022-09-09T00:57:59;6.45;;;4.93;;
45232;SDS011;30969;51.052;17.056;2022-09-09T01:03:13;5.88;;;5.10;;
45232;SDS011;30969;51.052;17.056;2022-09-09T01:08:35;6.07;;;4.65;;
45232;SDS011;30969;51.052;17.056;2022-09-09T01:13:53;7.22;;;4.53;;
45232;SDS011;30969;51.052;17.056;2022-09-09T01:19:04;5.80;;;4.63;;
45232;SDS011;30969;51.052;17.056;2022-09-09T01:24:20;5.63;;;4.30;;
45232;SDS011;30969;51.052;17.056;2022-09-09T01:29:29;7.90;;;4.25;;
45232;SDS011;30969;51.052;17.056;2022-09-09T01:34:33;5.85;;;3.83;;
45232;SDS011;30969;51.052;17.056;2022-09-09T01:39:42;3.70;;;3.22;;
45232;SDS011;30969;51.052;17.056;2022-09-09T01:44:48;4.35;;;3.55;;
45232;SDS011;30969;51.052;17.056;2022-09-09T01:49:51;4.63;;;3.92;;
45232;SDS011;30969;51.052;17.056;2022-09-09T01:54:55;4.57;;;3.88;;
45232;SDS011;30969;51.052;17.056;2022-09-09T02:00:03;4.88;;;3.55;;
45232;SDS011;30969;51.052;17.056;2022-09-09T02:05:12;5.15;;;4.05;;
45232;SDS011;30969;51.052;17.056;2022-09-09T02:10:28;5.57;;;4.28;;
45232;SDS011;30969;51.052;17.056;2022-09-09T02:15:39;5.55;;;4.15;;
45232;SDS011;30969;51.052;17.056;2022-09-09T02:20:46;6.78;;;4.25;;
45232;SDS011;30969;51.052;17.056;2022-09-09T02:25:51;4.95;;;4.10;;
45232;SDS011;30969;51.052;17.056;2022-09-09T02:30:57;4.03;;;3.63;;
45232;SDS011;30969;51.052;17.056;2022-09-09T02:36:04;5.93;;;4.63;;
45232;SDS011;30969;51.052;17.056;2022-09-09T02:41:11;5.57;;;4.97;;
45232;SDS011;30969;51.052;17.056;2022-09-09T02:46:23;7.03;;;4.28;;
45232;SDS011;30969;51.052;17.056;2022-09-09T02:51:35;9.02;;;5.35;;
45232;SDS011;30969;51.052;17.056;2022-09-09T02:56:48;7.55;;;4.90;;
45232;SDS011;30969;51.052;17.056;2022-09-09T03:01:57;7.57;;;5.05;;
45232;SDS011;30969;51.052;17.056;2022-09-09T03:07:00;6.53;;;4.40;;
45232;SDS011;30969;51.052;17.056;2022-09-09T03:12:05;5.45;;;4.82;;
45232;SDS011;30969;51.052;17.056;2022-09-09T03:17:10;4.70;;;4.20;;
45232;SDS011;30969;51.052;17.056;2022-09-09T03:32:42;7.75;;;4.30;;
45232;SDS011;30969;51.052;17.056;2022-09-09T03:37:50;5.70;;;4.95;;
45232;SDS011;30969;51.052;17.056;2022-09-09T03:42:53;7.45;;;4.70;;
45232;SDS011;30969;51.052;17.056;2022-09-09T03:47:58;6.28;;;5.47;;
45232;SDS011;30969;51.052;17.056;2022-09-09T03:53:01;7.55;;;5.05;;
45232;SDS011;30969;51.052;17.056;2022-09-09T03:58:05;7.25;;;5.15;;
45232;SDS011;30969;51.052;17.056;2022-09-09T04:03:09;6.47;;;5.85;;
45232;SDS011;30969;51.052;17.056;2022-09-09T04:08:13;7.13;;;5.05;;
45232;SDS011;30969;51.052;17.056;2022-09-09T04:13:17;7.40;;;5.60;;
45232;SDS011;30969;51.052;17.056;2022-09-09T04:18:23;6.05;;;5.50;;
45232;SDS011;30969;51.052;17.056;2022-09-09T04:23:28;7.03;;;5.47;;
45232;SDS011;30969;51.052;17.056;2022-09-09T04:28:32;7.22;;;6.50;;
45232;SDS011;30969;51.052;17.056;2022-09-09T04:33:38;6.50;;;5.85;;
45232;SDS011;30969;51.052;17.056;2022-09-09T04:38:42;6.72;;;6.03;;
45232;SDS011;30969;51.052;17.056;2022-09-09T04:43:46;6.38;;;5.53;;
45232;SDS011;30969;51.052;17.056;2022-09-09T04:48:51;12.00;;;5.88;;
45232;SDS011;30969;51.052;17.056;2022-09-09T04:53:55;9.35;;;5.60;;
45232;SDS011;30969;51.052;17.056;2022-09-09T04:58:58;7.13;;;5.88;;
45232;SDS011;30969;51.052;17.056;2022-09-09T05:04:05;7.38;;;4.97;;
45232;SDS011;30969;51.052;17.056;2022-09-09T05:09:10;7.18;;;5.53;;
45232;SDS011;30969;51.052;17.056;2022-09-09T05:14:13;6.32;;;4.68;;
45232;SDS011;30969;51.052;17.056;2022-09-09T05:19:18;5.35;;;4.85;;
45232;SDS011;30969;51.052;17.056;2022-09-09T05:24:21;6.85;;;4.90;;
45232;SDS011;30969;51.052;17.056;2022-09-09T05:29:25;4.95;;;4.32;;
45232;SDS011;30969;51.052;17.056;2022-09-09T05:34:30;3.60;;;3.30;;
45232;SDS011;30969;51.052;17.056;2022-09-09T05:39:33;4.85;;;4.35;;
45232;SDS011;30969;51.052;17.056;2022-09-09T05:44:38;5.32;;;4.63;;
45232;SDS011;30969;51.052;17.056;2022-09-09T05:49:46;4.72;;;4.28;;
45232;SDS011;30969;51.052;17.056;2022-09-09T05:54:49;8.13;;;4.00;;
45232;SDS011;30969;51.052;17.056;2022-09-09T05:59:53;5.22;;;4.13;;
45232;SDS011;30969;51.052;17.056;2022-09-09T06:04:58;7.90;;;5.53;;
45232;SDS011;30969;51.052;17.056;2022-09-09T06:10:01;5.13;;;3.80;;
45232;SDS011;30969;51.052;17.056;2022-09-09T06:15:05;7.22;;;3.35;;
45232;SDS011;30969;51.052;17.056;2022-09-09T06:20:12;5.07;;;3.75;;
45232;SDS011;30969;51.052;17.056;2022-09-09T06:25:15;6.63;;;3.65;;
45232;SDS011;30969;51.052;17.056;2022-09-09T06:30:20;5.45;;;4.07;;
45232;SDS011;30969;51.052;17.056;2022-09-09T06:35:24;6.25;;;3.05;;
45232;SDS011;30969;51.052;17.056;2022-09-09T06:40:28;4.10;;;3.40;;
45232;SDS011;30969;51.052;17.056;2022-09-09T06:45:32;9.02;;;3.50;;
45232;SDS011;30969;51.052;17.056;2022-09-09T06:50:39;5.05;;;2.45;;
45232;SDS011;30969;51.052;17.056;2022-09-09T06:55:42;5.45;;;2.80;;
45232;SDS011;30969;51.052;17.056;2022-09-09T07:00:46;5.50;;;3.30;;
45232;SDS011;30969;51.052;17.056;2022-09-09T07:05:57;6.65;;;3.05;;
45232;SDS011;30969;51.052;17.056;2022-09-09T07:11:04;3.45;;;3.10;;
45232;SDS011;30969;51.052;17.056;2022-09-09T07:16:14;7.40;;;4.22;;
45232;SDS011;30969;51.052;17.056;2022-09-09T07:21:20;3.30;;;3.00;;
45232;SDS011;30969;51.052;17.056;2022-09-09T07:26:24;8.10;;;3.90;;
45232;SDS011;30969;51.052;17.056;2022-09-09T07:31:30;4.95;;;2.70;;
45232;SDS011;30969;51.052;17.056;2022-09-09T07:36:38;5.40;;;2.70;;
45232;SDS011;30969;51.052;17.056;2022-09-09T07:55:38;3.45;;;1.90;;
45232;SDS011;30969;51.052;17.056;2022-09-09T08:00:43;2.53;;;1.73;;
45232;SDS011;30969;51.052;17.056;2022-09-09T08:05:46;2.83;;;1.80;;
45232;SDS011;30969;51.052;17.056;2022-09-09T08:10:51;4.53;;;1.80;;
45232;SDS011;30969;51.052;17.056;2022-09-09T08:15:54;2.50;;;1.75;;
45232;SDS011;30969;51.052;17.056;2022-09-09T08:20:58;2.70;;;1.92;;
45232;SDS011;30969;51.052;17.056;2022-09-09T08:26:11;5.97;;;1.92;;
45232;SDS011;30969;51.052;17.056;2022-09-09T08:31:17;3.42;;;2.00;;
45232;SDS011;30969;51.052;17.056;2022-09-09T08:36:23;6.32;;;2.00;;
45232;SDS011;30969;51.052;17.056;2022-09-09T08:47:03;3.50;;;1.40;;
45232;SDS011;30969;51.052;17.056;2022-09-09T08:52:15;2.10;;;1.33;;
45232;SDS011;30969;51.052;17.056;2022-09-09T08:57:25;3.58;;;2.60;;
45232;SDS011;30969;51.052;17.056;2022-09-09T09:02:36;2.38;;;1.25;;
45232;SDS011;30969;51.052;17.056;2022-09-09T09:07:52;3.38;;;1.15;;
45232;SDS011;30969;51.052;17.056;2022-09-09T09:13:08;1.25;;;0.82;;
45232;SDS011;30969;51.052;17.056;2022-09-09T09:18:19;1.67;;;0.90;;
45232;SDS011;30969;51.052;17.056;2022-09-09T09:23:24;3.75;;;1.60;;
45232;SDS011;30969;51.052;17.056;2022-09-09T09:28:33;2.42;;;1.30;;
45232;SDS011;30969;51.052;17.056;2022-09-09T09:33:42;2.10;;;1.00;;
45232;SDS011;30969;51.052;17.056;2022-09-09T09:38:52;1.77;;;1.00;;
45232;SDS011;30969;51.052;17.056;2022-09-09T09:44:22;1.98;;;1.38;;
45232;SDS011;30969;51.052;17.056;2022-09-09T09:49:28;1.60;;;1.27;;
45232;SDS011;30969;51.052;17.056;2022-09-09T09:54:37;2.72;;;1.40;;
45232;SDS011;30969;51.052;17.056;2022-09-09T09:59:43;3.40;;;1.20;;
45232;SDS011;30969;51.052;17.056;2022-09-09T10:04:48;2.80;;;1.90;;
45232;SDS011;30969;51.052;17.056;2022-09-09T10:09:54;4.30;;;1.58;;
45232;SDS011;30969;51.052;17.056;2022-09-09T10:15:02;2.63;;;1.30;;
45232;SDS011;30969;51.052;17.056;2022-09-09T10:20:17;12.23;;;1.77;;
45232;SDS011;30969;51.052;17.056;2022-09-09T10:25:32;1.15;;;0.98;;
45232;SDS011;30969;51.052;17.056;2022-09-09T10:30:50;3.88;;;1.55;;
45232;SDS011;30969;51.052;17.056;2022-09-09T10:36:06;2.53;;;1.15;;
45232;SDS011;30969;51.052;17.056;2022-09-09T10:41:18;1.95;;;1.05;;
45232;SDS011;30969;51.052;17.056;2022-09-09T10:46:28;3.53;;;1.80;;
45232;SDS011;30969;51.052;17.056;2022-09-09T10:51:42;2.83;;;1.33;;
45232;SDS011;30969;51.052;17.056;2022-09-09T10:56:52;4.78;;;1.63;;
45232;SDS011;30969;51.052;17.056;2022-09-09T11:02:05;4.07;;;1.15;;
45232;SDS011;30969;51.052;17.056;2022-09-09T11:07:17;8.68;;;1.30;;
45232;SDS011;30969;51.052;17.056;2022-09-09T11:12:28;2.67;;;0.98;;
45232;SDS011;30969;51.052;17.056;2022-09-09T11:17:36;1.55;;;1.00;;
45232;SDS011;30969;51.052;17.056;2022-09-09T11:22:47;3.17;;;1.17;;
45232;SDS011;30969;51.052;17.056;2022-09-09T11:27:58;4.28;;;1.33;;
45232;SDS011;30969;51.052;17.056;2022-09-09T11:33:40;3.83;;;1.70;;
45232;SDS011;30969;51.052;17.056;2022-09-09T11:38:56;4.32;;;1.20;;
45232;SDS011;30969;51.052;17.056;2022-09-09T11:44:09;4.80;;;1.25;;
45232;SDS011;30969;51.052;17.056;2022-09-09T11:49:25;2.17;;;1.02;;
45232;SDS011;30969;51.052;17.056;2022-09-09T11:54:31;3.30;;;1.13;;
45232;SDS011;30969;51.052;17.056;2022-09-09T11:59:49;6.97;;;1.52;;
45232;SDS011;30969;51.052;17.056;2022-09-09T12:04:57;1.63;;;1.00;;
45232;SDS011;30969;51.052;17.056;2022-09-09T12:10:04;4.45;;;1.30;;
45232;SDS011;30969;51.052;17.056;2022-09-09T12:15:23;1.77;;;0.90;;
45232;SDS011;30969;51.052;17.056;2022-09-09T12:20:33;1.90;;;1.10;;
45232;SDS011;30969;51.052;17.056;2022-09-09T12:25:44;2.55;;;1.05;;
45232;SDS011;30969;51.052;17.056;2022-09-09T12:30:56;3.10;;;1.00;;
45232;SDS011;30969;51.052;17.056;2022-09-09T12:36:11;1.77;;;0.93;;
45232;SDS011;30969;51.052;17.056;2022-09-09T12:41:20;2.67;;;1.15;;
45232;SDS011;30969;51.052;17.056;2022-09-09T12:46:31;1.88;;;1.52;;
45232;SDS011;30969;51.052;17.056;2022-09-09T12:51:40;4.72;;;1.65;;
45232;SDS011;30969;51.052;17.056;2022-09-09T12:56:46;3.60;;;1.85;;
45232;SDS011;30969;51.052;17.056;2022-09-09T13:01:55;3.75;;;1.52;;
45232;SDS011;30969;51.052;17.056;2022-09-09T13:07:06;3.17;;;1.08;;
45232;SDS011;30969;51.052;17.056;2022-09-09T13:12:13;5.07;;;2.08;;
45232;SDS011;30969;51.052;17.056;2022-09-09T13:17:20;1.95;;;1.30;;
45232;SDS011;30969;51.052;17.056;2022-09-09T13:22:29;3.10;;;1.10;;
45232;SDS011;30969;51.052;17.056;2022-09-09T13:27:35;1.67;;;1.10;;
45232;SDS011;30969;51.052;17.056;2022-09-09T13:32:41;3.53;;;1.90;;
45232;SDS011;30969;51.052;17.056;2022-09-09T13:37:45;3.78;;;1.30;;
45232;SDS011;30969;51.052;17.056;2022-09-09T13:42:51;1.77;;;1.27;;
45232;SDS011;30969;51.052;17.056;2022-09-09T13:47:57;3.70;;;1.10;;
45232;SDS011;30969;51.052;17.056;2022-09-09T13:53:13;1.55;;;0.80;;
45232;SDS011;30969;51.052;17.056;2022-09-09T13:58:16;1.83;;;1.00;;
45232;SDS011;30969;51.052;17.056;2022-09-09T14:03:20;1.70;;;1.10;;
45232;SDS011;30969;51.052;17.056;2022-09-09T14:08:26;2.28;;;1.27;;
45232;SDS011;30969;51.052;17.056;2022-09-09T14:13:34;3.13;;;2.30;;
45232;SDS011;30969;51.052;17.056;2022-09-09T14:18:39;3.53;;;1.35;;
45232;SDS011;30969;51.052;17.056;2022-09-09T14:23:44;2.38;;;1.63;;
45232;SDS011;30969;51.052;17.056;2022-09-09T14:28:48;3.90;;;1.30;;
45232;SDS011;30969;51.052;17.056;2022-09-09T14:33:57;3.28;;;1.58;;
45232;SDS011;30969;51.052;17.056;2022-09-09T14:39:03;4.35;;;1.33;;
45232;SDS011;30969;51.052;17.056;2022-09-09T14:44:06;3.92;;;1.48;;
45232;SDS011;30969;51.052;17.056;2022-09-09T14:49:11;2.25;;;1.25;;
45232;SDS011;30969;51.052;17.056;2022-09-09T14:54:16;1.52;;;1.10;;
45232;SDS011;30969;51.052;17.056;2022-09-09T14:59:20;1.20;;;0.95;;
45232;SDS011;30969;51.052;17.056;2022-09-09T15:04:24;1.95;;;1.20;;
45232;SDS011;30969;51.052;17.056;2022-09-09T15:09:30;2.05;;;1.20;;
45232;SDS011;30969;51.052;17.056;2022-09-09T15:14:34;2.00;;;1.05;;
45232;SDS011;30969;51.052;17.056;2022-09-09T15:19:38;3.70;;;1.73;;
45232;SDS011;30969;51.052;17.056;2022-09-09T15:24:49;3.30;;;1.40;;
45232;SDS011;30969;51.052;17.056;2022-09-09T15:29:52;2.05;;;1.20;;
45232;SDS011;30969;51.052;17.056;2022-09-09T15:34:56;3.47;;;1.30;;
45232;SDS011;30969;51.052;17.056;2022-09-09T15:40:02;5.20;;;1.55;;
45232;SDS011;30969;51.052;17.056;2022-09-09T15:45:08;1.45;;;1.10;;
45232;SDS011;30969;51.052;17.056;2022-09-09T15:50:12;2.40;;;1.30;;
45232;SDS011;30969;51.052;17.056;2022-09-09T15:55:17;2.83;;;1.30;;
45232;SDS011;30969;51.052;17.056;2022-09-09T16:00:21;7.32;;;5.22;;
45232;SDS011;30969;51.052;17.056;2022-09-09T16:05:26;7.00;;;2.10;;
45232;SDS011;30969;51.052;17.056;2022-09-09T16:10:31;3.10;;;1.20;;
45232;SDS011;30969;51.052;17.056;2022-09-09T16:15:34;1.98;;;1.15;;
45232;SDS011;30969;51.052;17.056;2022-09-09T16:20:40;1.65;;;1.50;;
45232;SDS011;30969;51.052;17.056;2022-09-09T16:25:52;2.38;;;0.90;;
45232;SDS011;30969;51.052;17.056;2022-09-09T16:30:56;3.20;;;1.92;;
45232;SDS011;30969;51.052;17.056;2022-09-09T16:36:04;6.70;;;1.58;;
45232;SDS011;30969;51.052;17.056;2022-09-09T16:41:10;2.05;;;1.35;;
45232;SDS011;30969;51.052;17.056;2022-09-09T16:46:17;1.50;;;1.10;;
45232;SDS011;30969;51.052;17.056;2022-09-09T16:51:23;3.40;;;1.20;;
45232;SDS011;30969;51.052;17.056;2022-09-09T16:56:30;4.43;;;2.22;;
45232;SDS011;30969;51.052;17.056;2022-09-09T17:01:36;4.05;;;2.55;;
45232;SDS011;30969;51.052;17.056;2022-09-09T17:06:45;6.65;;;1.63;;
45232;SDS011;30969;51.052;17.056;2022-09-09T17:11:50;2.70;;;1.10;;
45232;SDS011;30969;51.052;17.056;2022-09-09T17:16:54;4.25;;;1.48;;
45232;SDS011;30969;51.052;17.056;2022-09-09T17:22:19;4.25;;;1.95;;
45232;SDS011;30969;51.052;17.056;2022-09-09T17:27:24;4.68;;;1.95;;
45232;SDS011;30969;51.052;17.056;2022-09-09T17:32:28;4.53;;;2.65;;
45232;SDS011;30969;51.052;17.056;2022-09-09T17:37:32;3.78;;;2.22;;
45232;SDS011;30969;51.052;17.056;2022-09-09T17:42:36;4.57;;;1.45;;
45232;SDS011;30969;51.052;17.056;2022-09-09T17:47:40;2.00;;;1.27;;
45232;SDS011;30969;51.052;17.056;2022-09-09T17:52:44;3.20;;;1.48;;
45232;SDS011;30969;51.052;17.056;2022-09-09T17:57:49;3.70;;;1.60;;
45232;SDS011;30969;51.052;17.056;2022-09-09T18:02:53;3.17;;;1.65;;
45232;SDS011;30969;51.052;17.056;2022-09-09T18:07:57;5.70;;;3.20;;
45232;SDS011;30969;51.052;17.056;2022-09-09T18:13:02;3.63;;;1.58;;
45232;SDS011;30969;51.052;17.056;2022-09-09T18:18:08;3.65;;;1.45;;
45232;SDS011;30969;51.052;17.056;2022-09-09T18:23:12;2.83;;;1.40;;
45232;SDS011;30969;51.052;17.056;2022-09-09T18:28:17;2.95;;;1.38;;
45232;SDS011;30969;51.052;17.056;2022-09-09T18:33:26;2.80;;;1.42;;
45232;SDS011;30969;51.052;17.056;2022-09-09T18:38:30;3.70;;;1.20;;
45232;SDS011;30969;51.052;17.056;2022-09-09T18:43:37;2.28;;;1.17;;
45232;SDS011;30969;51.052;17.056;2022-09-09T18:48:42;6.63;;;1.50;;
45232;SDS011;30969;51.052;17.056;2022-09-09T18:53:48;5.07;;;1.85;;
45232;SDS011;30969;51.052;17.056;2022-09-09T18:58:58;3.22;;;1.73;;
45232;SDS011;30969;51.052;17.056;2022-09-09T19:04:03;5.30;;;1.80;;
45232;SDS011;30969;51.052;17.056;2022-09-09T19:09:12;1.95;;;1.42;;
45232;SDS011;30969;51.052;17.056;2022-09-09T19:14:19;5.15;;;1.63;;
45232;SDS011;30969;51.052;17.056;2022-09-09T19:19:25;5.13;;;1.92;;
45232;SDS011;30969;51.052;17.056;2022-09-09T19:24:30;3.97;;;1.40;;
45232;SDS011;30969;51.052;17.056;2022-09-09T19:29:36;5.63;;;2.17;;
45232;SDS011;30969;51.052;17.056;2022-09-09T19:34:42;2.58;;;1.55;;
45232;SDS011;30969;51.052;17.056;2022-09-09T19:39:46;4.40;;;2.85;;
45232;SDS011;30969;51.052;17.056;2022-09-09T19:44:51;3.65;;;2.00;;
45232;SDS011;30969;51.052;17.056;2022-09-09T19:49:55;5.78;;;2.28;;
45232;SDS011;30969;51.052;17.056;2022-09-09T19:54:59;3.80;;;2.00;;
45232;SDS011;30969;51.052;17.056;2022-09-09T20:00:04;2.67;;;1.92;;
45232;SDS011;30969;51.052;17.056;2022-09-09T20:05:10;3.58;;;1.95;;
45232;SDS011;30969;51.052;17.056;2022-09-09T20:10:14;9.98;;;2.17;;
45232;SDS011;30969;51.052;17.056;2022-09-09T20:15:19;4.85;;;1.73;;
45232;SDS011;30969;51.052;17.056;2022-09-09T20:20:22;3.80;;;1.80;;
45232;SDS011;30969;51.052;17.056;2022-09-09T20:25:26;4.63;;;2.10;;
45232;SDS011;30969;51.052;17.056;2022-09-09T20:30:31;4.68;;;2.60;;
45232;SDS011;30969;51.052;17.056;2022-09-09T20:35:38;5.85;;;3.13;;
45232;SDS011;30969;51.052;17.056;2022-09-09T20:40:42;6.85;;;3.88;;
45232;SDS011;30969;51.052;17.056;2022-09-09T20:45:47;5.38;;;2.63;;
45232;SDS011;30969;51.052;17.056;2022-09-09T20:50:50;7.22;;;2.38;;
45232;SDS011;30969;51.052;17.056;2022-09-09T20:55:57;3.70;;;1.92;;
45232;SDS011;30969;51.052;17.056;2022-09-09T21:01:03;4.40;;;2.20;;
45232;SDS011;30969;51.052;17.056;2022-09-09T21:06:08;3.55;;;1.58;;
45232;SDS011;30969;51.052;17.056;2022-09-09T21:11:12;2.33;;;1.52;;
45232;SDS011;30969;51.052;17.056;2022-09-09T21:16:17;3.47;;;1.95;;
45232;SDS011;30969;51.052;17.056;2022-09-09T21:21:22;4.35;;;1.85;;
45232;SDS011;30969;51.052;17.056;2022-09-09T21:26:26;5.25;;;2.83;;
45232;SDS011;30969;51.052;17.056;2022-09-09T21:31:32;3.53;;;2.22;;
45232;SDS011;30969;51.052;17.056;2022-09-09T21:36:35;3.65;;;2.22;;
45232;SDS011;30969;51.052;17.056;2022-09-09T21:41:39;4.57;;;1.50;;
45232;SDS011;30969;51.052;17.056;2022-09-09T21:46:43;5.45;;;2.63;;
45232;SDS011;30969;51.052;17.056;2022-09-09T21:51:47;4.93;;;1.95;;
45232;SDS011;30969;51.052;17.056;2022-09-09T21:56:51;3.63;;;1.40;;
45232;SDS011;30969;51.052;17.056;2022-09-09T22:01:56;3.75;;;1.83;;
45232;SDS011;30969;51.052;17.056;2022-09-09T22:07:00;4.40;;;1.98;;
45232;SDS011;30969;51.052;17.056;2022-09-09T22:12:03;3.35;;;1.75;;
45232;SDS011;30969;51.052;17.056;2022-09-09T22:17:09;2.38;;;1.38;;
45232;SDS011;30969;51.052;17.056;2022-09-09T22:22:12;2.58;;;1.30;;
45232;SDS011;30969;51.052;17.056;2022-09-09T22:27:16;5.72;;;2.42;;
45232;SDS011;30969;51.052;17.056;2022-09-09T22:32:21;3.42;;;1.30;;
45232;SDS011;30969;51.052;17.056;2022-09-09T22:37:25;4.22;;;1.08;;
45232;SDS011;30969;51.052;17.056;2022-09-09T22:42:28;1.58;;;0.98;;
45232;SDS011;30969;51.052;17.056;2022-09-09T22:47:33;3.65;;;1.20;;
45232;SDS011;30969;51.052;17.056;2022-09-09T22:52:37;3.65;;;1.10;;
45232;SDS011;30969;51.052;17.056;2022-09-09T22:57:40;4.45;;;1.27;;
45232;SDS011;30969;51.052;17.056;2022-09-09T23:02:45;5.40;;;1.70;;
45232;SDS011;30969;51.052;17.056;2022-09-09T23:07:51;1.83;;;1.17;;
45232;SDS011;30969;51.052;17.056;2022-09-09T23:12:56;1.55;;;1.17;;
45232;SDS011;30969;51.052;17.056;2022-09-09T23:18:02;1.55;;;0.77;;
45232;SDS011;30969;51.052;17.056;2022-09-09T23:23:05;2.20;;;0.80;;
45232;SDS011;30969;51.052;17.056;2022-09-09T23:28:09;5.30;;;2.20;;
45232;SDS011;30969;51.052;17.056;2022-09-09T23:33:14;2.72;;;1.17;;
45232;SDS011;30969;51.052;17.056;2022-09-09T23:38:17;2.47;;;0.98;;
45232;SDS011;30969;51.052;17.056;2022-09-09T23:43:21;3.20;;;0.98;;
45232;SDS011;30969;51.052;17.056;2022-09-09T23:48:29;1.48;;;0.82;;
45232;SDS011;30969;51.052;17.056;2022-09-09T23:53:34;3.97;;;0.80;;
45232;SDS011;30969;51.052;17.056;2022-09-09T23:58:38;2.15;;;0.85;;
